Terminal Aerodrome Forecast
Issued by NWS

Home | Current Version | Previous Version | Text Only | Print | Product List | Glossary On
Versions: 1 2 3 4 5 6 7 8 9 10 11 12 13 14 15 16 17 18 19 20 21
000
FTUS41 KOKX 242354
TAFSWF
TAF
KSWF 242354Z 2500/2606 31014G24KT P6SM BKN060
     FM250200 30010KT P6SM SCT060
     FM251300 31013G20KT P6SM SCT050 SCT250
     FM252200 33010KT P6SM FEW050 SCT250
     FM260000 33005KT P6SM SCT250
     FM260200 VRB03KT P6SM SCT250
      AMD NOT SKED=

USA.gov is the U.S. government's official web portal to all federal, state and local government web resources and services.